createdAt,value
2022-12-17T00:00:56.728Z,46.9
2022-12-17T00:02:12.000Z,51.7
2022-12-17T00:03:29.033Z,45.4
2022-12-17T00:04:44.000Z,47.4
2022-12-17T00:06:01.000Z,49.5
2022-12-17T00:07:16.000Z,39.5
2022-12-17T00:08:32.621Z,45.6
2022-12-17T00:09:48.000Z,66.7
2022-12-17T00:11:05.018Z,54.9
2022-12-17T00:12:21.064Z,39.6
2022-12-17T00:13:36.000Z,41.9
2022-12-17T00:14:53.359Z,49.6
2022-12-17T00:16:09.000Z,65.1
2022-12-17T00:17:25.000Z,34.9
2022-12-17T00:18:41.000Z,55.8
2022-12-17T00:19:57.000Z,42.1
2022-12-17T00:21:13.000Z,49.2
2022-12-17T00:22:30.000Z,63.9
2022-12-17T00:23:45.000Z,37.5
2022-12-17T00:25:01.000Z,58.3
2022-12-17T00:26:17.000Z,38.7
2022-12-17T00:27:33.000Z,42.1
2022-12-17T00:28:49.000Z,53
2022-12-17T00:30:05.000Z,37.4
2022-12-17T00:31:22.000Z,50.4
2022-12-17T00:32:38.000Z,40.6
2022-12-17T00:33:54.000Z,46.4
2022-12-17T00:35:10.000Z,43.1
2022-12-17T00:36:26.000Z,38.6
2022-12-17T00:37:43.047Z,40.1
2022-12-17T00:38:58.000Z,46.8
2022-12-17T00:40:14.000Z,60.7
2022-12-17T00:41:30.000Z,40.2
2022-12-17T00:42:46.000Z,41.1
2022-12-17T00:44:02.000Z,35.2
2022-12-17T00:45:18.950Z,43.9
2022-12-17T00:46:34.000Z,35.8
2022-12-17T00:47:51.000Z,45.6
2022-12-17T00:50:23.000Z,45.9
2022-12-17T00:51:39.000Z,35.9
2022-12-17T00:52:55.000Z,36.7
2022-12-17T00:54:11.000Z,39.2
2022-12-17T00:55:27.000Z,41.5
2022-12-17T00:56:43.000Z,60.9
2022-12-17T00:57:59.000Z,44.9
2022-12-17T00:59:15.000Z,64.7
2022-12-17T01:00:31.000Z,46.3
2022-12-17T01:01:47.000Z,51
2022-12-17T01:03:03.000Z,42.2
2022-12-17T01:04:20.209Z,45.2
2022-12-17T01:05:36.000Z,79.3
2022-12-17T01:06:52.000Z,64.7
2022-12-17T01:08:08.000Z,57.1
2022-12-17T01:09:24.796Z,51
2022-12-17T01:10:40.000Z,62.7
2022-12-17T01:11:56.000Z,54.4
2022-12-17T01:13:12.000Z,47.8
2022-12-17T01:14:28.000Z,55.4
2022-12-17T01:15:44.000Z,57.5
2022-12-17T01:17:00.000Z,78.5
2022-12-17T01:18:16.855Z,62.1
2022-12-17T01:19:32.000Z,83.2
2022-12-17T01:20:47.000Z,77.6
2022-12-17T01:22:04.325Z,64.2
2022-12-17T01:23:20.000Z,65.1
2022-12-17T01:24:36.622Z,59.2
2022-12-17T01:25:52.000Z,69.5
2022-12-17T01:27:08.000Z,77.9
2022-12-17T01:28:24.000Z,85.5
2022-12-17T01:29:41.000Z,81.6
2022-12-17T01:30:57.000Z,75
2022-12-17T01:32:13.000Z,103.6
2022-12-17T01:33:29.000Z,76.5
2022-12-17T01:34:45.000Z,82
2022-12-17T01:36:01.000Z,77.9
2022-12-17T01:37:16.000Z,86.7
2022-12-17T01:38:33.278Z,92.5
2022-12-17T01:39:49.000Z,79.8
2022-12-17T01:41:05.000Z,95.1
2022-12-17T01:42:21.000Z,106
2022-12-17T01:43:37.000Z,88.5
2022-12-17T01:44:53.000Z,91.4
2022-12-17T01:46:09.000Z,83.1
2022-12-17T01:47:26.000Z,93.2
2022-12-17T01:48:42.000Z,87.5
2022-12-17T01:49:58.601Z,85.6
2022-12-17T01:51:14.000Z,84.8
2022-12-17T01:52:30.000Z,75.2
2022-12-17T01:53:45.000Z,86.6
2022-12-17T01:55:01.000Z,138.3
2022-12-17T01:56:18.000Z,92.8
2022-12-17T01:57:34.000Z,85.5
2022-12-17T01:58:50.000Z,114.4
2022-12-17T02:00:06.000Z,87.6
2022-12-17T02:01:22.951Z,87.4
2022-12-17T02:02:38.000Z,90.1
2022-12-17T02:03:55.000Z,95.2
2022-12-17T02:05:11.000Z,109.3
2022-12-17T02:06:27.000Z,94.5
2022-12-17T02:07:43.000Z,92.4
2022-12-17T02:08:59.000Z,117.9
2022-12-17T02:10:14.000Z,111.4
2022-12-17T02:11:30.000Z,105.6
2022-12-17T02:12:47.000Z,113.9
2022-12-17T02:14:03.000Z,133.5
2022-12-17T02:15:19.000Z,111.9
2022-12-17T02:16:35.000Z,119.7
2022-12-17T02:17:51.000Z,105.4
2022-12-17T02:19:07.000Z,99.3
2022-12-17T02:20:23.000Z,112.2
2022-12-17T02:21:40.000Z,134.2
2022-12-17T02:22:56.481Z,100.6
2022-12-17T02:24:12.000Z,120.3
2022-12-17T02:25:28.000Z,130.6
2022-12-17T02:26:43.941Z,102.7
2022-12-17T02:27:59.000Z,115.9
2022-12-17T02:29:16.000Z,97.5
2022-12-17T02:30:32.000Z,97.6
2022-12-17T02:31:48.000Z,131.8
2022-12-17T02:33:04.677Z,113.9
2022-12-17T02:34:20.000Z,102
2022-12-17T02:35:36.000Z,94.2
2022-12-17T02:36:52.000Z,121.4
2022-12-17T02:38:09.000Z,110
2022-12-17T02:39:25.413Z,112.1
2022-12-17T02:40:41.000Z,103.5
2022-12-17T02:41:57.000Z,114.1
2022-12-17T02:43:12.000Z,119.6
2022-12-17T02:44:28.000Z,111.3
2022-12-17T02:45:45.166Z,112.5
2022-12-17T02:47:01.000Z,125.2
2022-12-17T02:48:17.000Z,129.4
2022-12-17T02:49:33.607Z,115.6
2022-12-17T02:50:49.000Z,119
2022-12-17T02:52:05.000Z,118.6
2022-12-17T02:53:21.000Z,111.3
2022-12-17T02:54:38.186Z,115.3
2022-12-17T02:55:54.000Z,131.6
2022-12-17T02:57:10.000Z,140.4
2022-12-17T02:58:26.000Z,111.9
2022-12-17T02:59:41.000Z,122.1
2022-12-17T03:00:57.944Z,124.3
2022-12-17T03:02:13.000Z,117
2022-12-17T03:03:30.000Z,121.3
2022-12-17T03:04:46.000Z,122.8
2022-12-17T03:06:02.521Z,132.5
2022-12-17T03:07:18.000Z,125.6
2022-12-17T03:08:34.831Z,121.5
2022-12-17T03:09:50.000Z,123.8
2022-12-17T03:11:06.000Z,120.4
2022-12-17T03:12:23.255Z,125.3
2022-12-17T03:13:39.000Z,144.9
2022-12-17T03:14:55.000Z,138.9
2022-12-17T03:16:10.000Z,117
2022-12-17T03:17:26.000Z,123.7
2022-12-17T03:18:42.000Z,123.5
2022-12-17T03:19:59.150Z,121.8
2022-12-17T03:21:15.000Z,128.9
2022-12-17T03:22:31.000Z,137.1
2022-12-17T03:23:47.000Z,124.9
2022-12-17T03:25:03.000Z,133.9
2022-12-17T03:26:19.901Z,131.5
2022-12-17T03:27:36.031Z,123.2
2022-12-17T03:28:51.000Z,140.5
2022-12-17T03:30:08.000Z,138.8
2022-12-17T03:31:24.464Z,136.6
2022-12-17T03:32:39.000Z,134.8
2022-12-17T03:33:55.774Z,131.5
2022-12-17T03:35:11.000Z,132.2
2022-12-17T03:36:27.000Z,116.4
2022-12-17T03:37:44.212Z,148.8
2022-12-17T03:39:00.000Z,139.8
2022-12-17T03:40:16.502Z,140
2022-12-17T03:41:32.000Z,137.9
2022-12-17T03:42:48.000Z,149.9
2022-12-17T03:44:04.000Z,121.1
2022-12-17T03:45:21.088Z,148.8
2022-12-17T03:46:37.000Z,155.6
2022-12-17T03:47:53.000Z,116.2
2022-12-17T03:49:08.000Z,138.8
2022-12-17T03:50:24.695Z,149.9
2022-12-17T03:51:40.000Z,142.1
2022-12-17T03:52:56.000Z,135.7
2022-12-17T03:54:12.000Z,133.4
2022-12-17T03:55:29.000Z,154.5
2022-12-17T03:56:45.000Z,165.4
2022-12-17T03:58:01.000Z,153.5
2022-12-17T03:59:17.000Z,141
2022-12-17T04:00:33.000Z,137.7
2022-12-17T04:01:49.000Z,157.2
2022-12-17T04:03:06.163Z,145.7
2022-12-17T04:04:22.312Z,155.7
2022-12-17T04:05:37.472Z,152.4
2022-12-17T04:06:53.393Z,165.1
2022-12-17T04:08:09.000Z,151.3
2022-12-17T04:09:25.000Z,183.7
2022-12-17T04:10:42.079Z,133.1
2022-12-17T04:11:57.000Z,157.1
2022-12-17T04:13:14.000Z,149.1
2022-12-17T04:14:30.000Z,136
2022-12-17T04:15:46.000Z,156.6
2022-12-17T04:17:02.000Z,149.5
2022-12-17T04:18:18.000Z,141.5
2022-12-17T04:19:34.000Z,144.8
2022-12-17T04:20:51.000Z,141.6
2022-12-17T04:22:06.000Z,142.8
2022-12-17T04:23:22.000Z,129
2022-12-17T04:24:38.000Z,133.7
2022-12-17T04:25:54.850Z,142.2
2022-12-17T04:27:10.000Z,133.8
2022-12-17T04:28:26.000Z,137.3
2022-12-17T04:29:43.277Z,145
2022-12-17T04:30:59.000Z,128.7
2022-12-17T04:32:15.000Z,138.5
2022-12-17T04:33:31.000Z,154.2
2022-12-17T04:34:47.000Z,145.7
2022-12-17T04:36:04.017Z,112.7
2022-12-17T04:37:19.000Z,135
2022-12-17T04:38:35.000Z,129.6
2022-12-17T04:39:51.000Z,132.4
2022-12-17T04:41:07.621Z,121.4
2022-12-17T04:42:23.000Z,140.8
2022-12-17T04:43:39.900Z,133.5
2022-12-17T04:44:55.000Z,117.6
2022-12-17T04:46:11.000Z,123.7
2022-12-17T04:47:28.343Z,145
2022-12-17T04:48:44.000Z,132.2
2022-12-17T04:50:00.000Z,133.3
2022-12-17T04:51:16.000Z,139.8
2022-12-17T04:52:32.000Z,137.8
2022-12-17T04:53:48.000Z,130.6
2022-12-17T04:55:04.000Z,123.3
2022-12-17T04:56:20.000Z,118.3
2022-12-17T04:57:36.000Z,119.7
2022-12-17T04:58:52.000Z,128.1
2022-12-17T05:00:08.000Z,133.8
2022-12-17T05:01:24.000Z,134.5
2022-12-17T05:02:40.000Z,122.1
2022-12-17T05:03:57.000Z,112.9
2022-12-17T05:05:13.000Z,137.7
2022-12-17T05:06:29.553Z,148.8
2022-12-17T05:07:45.000Z,117.7
2022-12-17T05:09:01.000Z,133.5
2022-12-17T05:10:17.000Z,122.7
2022-12-17T05:11:33.157Z,129.1
2022-12-17T05:12:49.000Z,122.4
2022-12-17T05:14:05.000Z,106.7
2022-12-17T05:15:21.000Z,127.4
2022-12-17T05:16:37.000Z,125.4
2022-12-17T05:17:53.890Z,128.6
2022-12-17T05:19:09.000Z,116.7
2022-12-17T05:20:25.000Z,119.6
2022-12-17T05:21:42.000Z,117.1
2022-12-17T05:22:58.000Z,138.3
2022-12-17T05:24:14.623Z,144.5
2022-12-17T05:25:30.000Z,136.7
2022-12-17T05:26:46.000Z,121.7
2022-12-17T05:28:01.000Z,122.6
2022-12-17T05:29:17.000Z,121.9
2022-12-17T05:30:34.000Z,113.6
2022-12-17T05:31:50.000Z,116.9
2022-12-17T05:33:06.000Z,131.1
2022-12-17T05:34:22.000Z,123.1
2022-12-17T05:35:37.000Z,150.1
2022-12-17T05:36:53.000Z,124
2022-12-17T05:38:10.274Z,138
2022-12-17T05:39:26.000Z,123
2022-12-17T05:40:42.000Z,149.9
2022-12-17T05:41:58.000Z,121.7
2022-12-17T05:43:14.000Z,131.7
2022-12-17T05:44:30.985Z,126.7
2022-12-17T05:45:46.898Z,131
2022-12-17T05:47:03.000Z,141.9
2022-12-17T05:48:19.000Z,146.4
2022-12-17T05:49:35.000Z,124.4
2022-12-17T05:50:51.000Z,117.6
2022-12-17T05:52:06.000Z,131.8
2022-12-17T05:53:23.012Z,137.7
2022-12-17T05:54:39.163Z,141.8
2022-12-17T05:55:55.000Z,128.1
2022-12-17T05:57:11.000Z,123.7
2022-12-17T05:58:27.000Z,136.9
2022-12-17T05:59:43.000Z,116.6
2022-12-17T06:00:59.884Z,138.9
2022-12-17T06:02:15.000Z,146.6
2022-12-17T06:03:32.172Z,133.5
2022-12-17T06:04:48.000Z,126.8
2022-12-17T06:06:04.000Z,123.1
2022-12-17T06:07:20.000Z,147
2022-12-17T06:08:35.000Z,141.2
2022-12-17T06:09:51.000Z,138.8
2022-12-17T06:11:07.000Z,150
2022-12-17T06:12:23.000Z,125.8
2022-12-17T06:13:40.000Z,148.5
2022-12-17T06:14:56.272Z,153.2
2022-12-17T06:16:12.000Z,147.5
2022-12-17T06:17:28.000Z,146.8
2022-12-17T06:18:44.000Z,145.9
2022-12-17T06:20:01.133Z,150.3
2022-12-17T06:21:16.000Z,160.1
2022-12-17T06:22:33.000Z,140.8
2022-12-17T06:23:49.000Z,121.5
2022-12-17T06:25:04.000Z,150.6
2022-12-17T06:26:20.000Z,157.6
2022-12-17T06:27:36.959Z,131
2022-12-17T06:28:52.000Z,111.7
2022-12-17T06:30:09.000Z,141.3
2022-12-17T06:31:25.000Z,128.4
2022-12-17T06:32:41.000Z,133.4
2022-12-17T06:33:57.000Z,133.7
2022-12-17T06:35:13.000Z,134.1
2022-12-17T06:36:29.000Z,146.1
2022-12-17T06:37:46.122Z,150.3
2022-12-17T06:39:02.000Z,142.1
2022-12-17T06:40:18.000Z,131.5
2022-12-17T06:41:33.000Z,151.6
2022-12-17T06:42:49.000Z,141.6
2022-12-17T06:44:05.000Z,143.9
2022-12-17T06:45:21.000Z,142.1
2022-12-17T06:46:38.163Z,123.5
2022-12-17T06:47:54.000Z,150.4
2022-12-17T06:49:10.000Z,131.9
2022-12-17T06:50:26.000Z,170.7
2022-12-17T06:51:42.743Z,146.5
2022-12-17T06:52:58.000Z,148.5
2022-12-17T06:54:14.000Z,164.8
2022-12-17T06:55:31.180Z,141.5
2022-12-17T06:56:47.000Z,134.7
2022-12-17T06:58:02.490Z,155.7
2022-12-17T06:59:18.000Z,160.6
2022-12-17T07:00:34.000Z,158.1
2022-12-17T07:01:50.000Z,136.1
2022-12-17T07:03:06.000Z,134.2
2022-12-17T07:04:23.214Z,148.9
2022-12-17T07:05:39.000Z,131.1
2022-12-17T07:06:55.000Z,138.4
2022-12-17T07:08:11.000Z,133.4
2022-12-17T07:09:27.000Z,163.6
2022-12-17T07:10:43.947Z,136.9
2022-12-17T07:11:59.000Z,145
2022-12-17T07:13:16.000Z,118.6
2022-12-17T07:14:31.404Z,133.6
2022-12-17T07:15:47.000Z,131.8
2022-12-17T07:17:03.694Z,140.9
2022-12-17T07:18:19.000Z,119.5
2022-12-17T07:19:35.000Z,133.5
2022-12-17T07:20:51.000Z,127.5
2022-12-17T07:22:08.278Z,139
2022-12-17T07:23:24.000Z,135
2022-12-17T07:24:40.000Z,117.4
2022-12-17T07:25:56.000Z,124.8
2022-12-17T07:27:12.000Z,132.1
2022-12-17T07:28:28.000Z,131.7
2022-12-17T07:29:44.000Z,126.3
2022-12-17T07:31:00.000Z,133.8
2022-12-17T07:32:16.000Z,132.5
2022-12-17T07:33:32.000Z,146
2022-12-17T07:34:48.000Z,109.6
2022-12-17T07:36:04.000Z,142.8
2022-12-17T07:37:21.036Z,134.8
2022-12-17T07:38:36.000Z,125.9
2022-12-17T07:39:53.000Z,121.5
2022-12-17T07:41:09.478Z,140.3
2022-12-17T07:42:25.000Z,133.8
2022-12-17T07:43:41.000Z,142.8
2022-12-17T07:44:57.000Z,114.2
2022-12-17T07:46:13.000Z,129.1
2022-12-17T07:47:28.000Z,127.7
2022-12-17T07:48:45.000Z,115.3
2022-12-17T07:50:01.000Z,117.4
2022-12-17T07:51:17.000Z,136
2022-12-17T07:52:33.000Z,120.3
2022-12-17T07:53:49.000Z,120
2022-12-17T07:55:05.000Z,112.7
2022-12-17T07:56:22.000Z,122
2022-12-17T07:57:38.390Z,111.7
2022-12-17T07:58:54.000Z,101.9
2022-12-17T08:00:10.000Z,107.1
2022-12-17T08:01:26.000Z,99.6
2022-12-17T08:02:42.000Z,117.9
2022-12-17T08:03:57.000Z,106.6
2022-12-17T08:05:14.000Z,105.8
2022-12-17T08:06:30.000Z,115.9
2022-12-17T08:07:46.000Z,130.2
2022-12-17T08:09:02.000Z,115.8
2022-12-17T08:10:18.000Z,94.9
2022-12-17T08:11:34.000Z,116.1
2022-12-17T08:12:50.000Z,106.7
2022-12-17T08:14:07.000Z,98.9
2022-12-17T08:15:23.000Z,87.6
2022-12-17T08:16:39.000Z,106.7
2022-12-17T08:17:55.000Z,84.7
2022-12-17T08:19:11.000Z,89.1
2022-12-17T08:20:26.000Z,86.8
2022-12-17T08:21:42.000Z,97.9
2022-12-17T08:22:59.000Z,89.6
2022-12-17T08:24:15.000Z,105.3
2022-12-17T08:25:31.000Z,91.4
2022-12-17T08:26:47.000Z,73
2022-12-17T08:28:03.000Z,82.1
2022-12-17T08:29:20.071Z,87.1
2022-12-17T08:30:35.000Z,91.4
2022-12-17T08:31:52.000Z,109.5
2022-12-17T08:33:08.000Z,105.1
2022-12-17T08:34:24.000Z,99.4
2022-12-17T08:35:40.000Z,93.7
2022-12-17T08:36:55.960Z,113.9
2022-12-17T08:38:11.000Z,94.4
2022-12-17T08:39:28.000Z,97
2022-12-17T08:40:44.000Z,93.2
2022-12-17T08:42:00.000Z,81
2022-12-17T08:43:16.000Z,84.9
2022-12-17T08:44:32.000Z,72.1
2022-12-17T08:45:48.000Z,79.9
2022-12-17T08:47:04.000Z,72.7
2022-12-17T08:48:21.000Z,81.8
2022-12-17T08:49:37.400Z,69
2022-12-17T08:50:53.000Z,69.9
2022-12-17T08:52:09.000Z,72.7
2022-12-17T08:53:24.000Z,82.4
2022-12-17T08:54:40.998Z,72.1
2022-12-17T08:55:56.000Z,65.9
2022-12-17T08:57:13.293Z,76.9
2022-12-17T08:58:29.000Z,70
2022-12-17T08:59:45.000Z,79.9
2022-12-17T09:01:01.000Z,68.8
2022-12-17T09:02:17.000Z,58.8
2022-12-17T09:03:33.000Z,61.8
2022-12-17T09:04:49.000Z,66.6
2022-12-17T09:06:06.000Z,58.1
2022-12-17T09:07:22.000Z,57.7
2022-12-17T09:08:38.000Z,58.2
2022-12-17T09:09:53.860Z,67
2022-12-17T09:11:09.000Z,58.6
2022-12-17T09:12:25.000Z,62
2022-12-17T09:13:41.000Z,56.8
2022-12-17T09:14:58.332Z,48.6
2022-12-17T09:16:14.000Z,75
2022-12-17T09:17:30.000Z,69.2
2022-12-17T09:18:46.000Z,62.2
2022-12-17T09:20:02.904Z,63.9
2022-12-17T09:21:18.000Z,70
2022-12-17T09:22:34.000Z,59.9
2022-12-17T09:23:51.000Z,73.5
2022-12-17T09:25:07.000Z,65.5
2022-12-17T09:26:22.000Z,65.9
2022-12-17T09:27:38.788Z,74.6
2022-12-17T09:28:54.000Z,64.7
2022-12-17T09:30:10.000Z,75.7
2022-12-17T09:31:26.000Z,75.4
2022-12-17T09:32:43.000Z,67.4
2022-12-17T09:33:59.000Z,75.8
2022-12-17T09:35:15.000Z,80.8
2022-12-17T09:36:31.000Z,67.9
2022-12-17T09:37:47.000Z,69.3
2022-12-17T09:39:03.000Z,72.1
2022-12-17T09:40:20.000Z,83.9
2022-12-17T09:41:36.000Z,60.6
2022-12-17T09:42:51.000Z,64.1
2022-12-17T09:44:07.000Z,74.8
2022-12-17T09:45:23.997Z,67.9
2022-12-17T09:46:39.000Z,65.6
2022-12-17T09:47:55.000Z,65.7
2022-12-17T09:49:12.000Z,77.4
2022-12-17T09:50:27.000Z,61.1
2022-12-17T09:51:43.000Z,65.4
2022-12-17T09:52:59.000Z,73.1
2022-12-17T09:54:15.000Z,75
2022-12-17T09:55:31.000Z,72.4
2022-12-17T09:56:47.000Z,69.7
2022-12-17T09:58:04.370Z,69.2
2022-12-17T09:59:20.450Z,71.9
2022-12-17T10:00:36.598Z,73.5
2022-12-17T10:01:52.000Z,78.7
2022-12-17T10:03:08.000Z,66.6
2022-12-17T10:04:24.000Z,81.5
2022-12-17T10:05:41.189Z,71
2022-12-17T10:06:56.000Z,74.5
2022-12-17T10:08:12.000Z,90.7
2022-12-17T10:09:28.000Z,84
2022-12-17T10:10:44.784Z,72.6
2022-12-17T10:12:00.000Z,65.6
2022-12-17T10:13:16.000Z,79.4
2022-12-17T10:14:32.000Z,65.1
2022-12-17T10:15:49.348Z,78.6
2022-12-17T10:17:05.000Z,80.6
2022-12-17T10:18:21.000Z,78.5
2022-12-17T10:19:37.780Z,86
2022-12-17T10:20:53.000Z,74.8
2022-12-17T10:22:09.000Z,79.4
2022-12-17T10:23:25.229Z,87.3
2022-12-17T10:24:41.373Z,79.2
2022-12-17T10:25:57.000Z,82.5
2022-12-17T10:27:13.000Z,69.1
2022-12-17T10:28:29.820Z,70.4
2022-12-17T10:29:45.000Z,73.4
2022-12-17T10:31:01.000Z,80.7
2022-12-17T10:32:18.258Z,81.9
2022-12-17T10:33:34.391Z,72.8
2022-12-17T10:34:50.536Z,59.4
2022-12-17T10:36:06.680Z,62
2022-12-17T10:37:22.826Z,64
2022-12-17T10:38:38.971Z,63.9
2022-12-17T10:39:53.000Z,72.1
2022-12-17T10:41:10.000Z,84.9
2022-12-17T10:42:26.000Z,81.8
2022-12-17T10:43:42.000Z,77.4
2022-12-17T10:44:58.000Z,77.3
2022-12-17T10:46:14.000Z,77.4
2022-12-17T10:47:30.000Z,99
2022-12-17T10:48:46.000Z,79.6
2022-12-17T10:50:03.000Z,84
2022-12-17T10:51:19.000Z,72.1
2022-12-17T10:52:35.000Z,84.4
2022-12-17T10:53:51.727Z,94.8
2022-12-17T10:55:07.000Z,85.9
2022-12-17T10:56:22.000Z,87.3
2022-12-17T10:57:39.179Z,85.7
2022-12-17T10:58:55.000Z,78.4
2022-12-17T11:00:11.467Z,69.5
2022-12-17T11:01:27.000Z,89.1
2022-12-17T11:02:43.000Z,79.6
2022-12-17T11:03:59.000Z,73.9
2022-12-17T11:05:16.040Z,79.8
2022-12-17T11:06:31.000Z,74.4
2022-12-17T11:07:48.000Z,77.1
2022-12-17T11:09:04.000Z,84.3
2022-12-17T11:10:20.000Z,92.8
2022-12-17T11:11:36.000Z,83.3
2022-12-17T11:12:51.000Z,72.6
2022-12-17T11:14:07.000Z,73.8
2022-12-17T11:15:23.000Z,77.7
2022-12-17T11:16:40.000Z,76
2022-12-17T11:17:56.000Z,70.1
2022-12-17T11:19:12.000Z,72.2
2022-12-17T11:20:28.000Z,73.4
2022-12-17T11:21:44.000Z,83
2022-12-17T11:23:00.000Z,72.7
2022-12-17T11:24:17.235Z,76.4
2022-12-17T11:25:33.000Z,82.9
2022-12-17T11:26:49.000Z,77.7
2022-12-17T11:28:05.000Z,84.4
2022-12-17T11:29:20.826Z,86.4
2022-12-17T11:30:36.000Z,90.3
2022-12-17T11:31:53.117Z,89.2
2022-12-17T11:33:09.000Z,86.2
2022-12-17T11:34:25.000Z,81.3
2022-12-17T11:35:41.000Z,82.4
2022-12-17T11:36:57.000Z,94.3
2022-12-17T11:38:13.000Z,87.2
2022-12-17T11:39:29.000Z,85.6
2022-12-17T11:40:45.000Z,84.1
2022-12-17T11:42:02.000Z,77.1
2022-12-17T11:43:18.420Z,88
2022-12-17T11:44:34.000Z,99.2
2022-12-17T11:45:49.000Z,96.4
2022-12-17T11:47:05.000Z,85.7
2022-12-17T11:48:21.000Z,85.3
2022-12-17T11:49:38.159Z,86.9
2022-12-17T11:50:54.305Z,92.1
2022-12-17T11:52:10.000Z,93.4
2022-12-17T11:53:26.000Z,90.6
2022-12-17T11:54:42.000Z,94.7
2022-12-17T11:55:58.000Z,96.6
2022-12-17T11:57:15.030Z,87.3
2022-12-17T11:58:30.000Z,91
2022-12-17T11:59:47.000Z,81
2022-12-17T12:01:03.000Z,84.2
2022-12-17T12:02:18.000Z,89.9
2022-12-17T12:03:34.000Z,87.8
2022-12-17T12:04:50.000Z,100.1
2022-12-17T12:06:06.000Z,85.7
2022-12-17T12:07:22.000Z,99
2022-12-17T12:08:39.350Z,84.4
2022-12-17T12:09:55.000Z,81.9
2022-12-17T12:11:11.637Z,84.3
2022-12-17T12:12:27.000Z,85.6
2022-12-17T12:13:43.000Z,92.5
2022-12-17T12:14:59.000Z,91.8
2022-12-17T12:16:15.000Z,91.9
2022-12-17T12:17:32.000Z,92.5
2022-12-17T12:18:47.000Z,81
2022-12-17T12:20:03.674Z,97.6
2022-12-17T12:21:19.000Z,78
2022-12-17T12:22:35.000Z,95
2022-12-17T12:23:52.110Z,108.2
2022-12-17T12:25:08.000Z,95.6
2022-12-17T12:26:24.000Z,99.7
2022-12-17T12:27:40.000Z,87.3
2022-12-17T12:28:56.000Z,92.9
2022-12-17T12:30:12.000Z,106.1
2022-12-17T12:31:28.000Z,109.9
2022-12-17T12:32:45.120Z,100.2
2022-12-17T12:34:01.267Z,89.1
2022-12-17T12:35:16.000Z,100.7
2022-12-17T12:36:32.000Z,90.7
2022-12-17T12:37:48.000Z,109.6
2022-12-17T12:39:04.000Z,118.7
2022-12-17T12:40:20.000Z,106.7
2022-12-17T12:41:36.000Z,107.1
2022-12-17T12:42:53.293Z,109.2
2022-12-17T12:44:09.000Z,105.5
2022-12-17T12:45:25.000Z,120.9
2022-12-17T12:46:41.725Z,113.7
2022-12-17T12:47:57.000Z,102.6
2022-12-17T12:49:13.000Z,111.6
2022-12-17T12:50:29.000Z,118.9
2022-12-17T12:51:45.000Z,116.6
2022-12-17T12:53:01.000Z,106.2
2022-12-17T12:54:17.619Z,99.3
2022-12-17T12:55:33.000Z,112.4
2022-12-17T12:56:49.906Z,112
2022-12-17T12:58:05.000Z,107.2
2022-12-17T12:59:21.000Z,116
2022-12-17T13:00:38.000Z,110
2022-12-17T13:01:54.000Z,117.7
2022-12-17T13:03:10.627Z,111.2
2022-12-17T13:04:26.000Z,103.1
2022-12-17T13:05:42.948Z,110.9
2022-12-17T13:06:58.000Z,108.4
2022-12-17T13:08:13.000Z,112
2022-12-17T13:09:30.000Z,115.8
2022-12-17T13:10:46.000Z,98.7
2022-12-17T13:12:02.000Z,102.2
2022-12-17T13:13:18.000Z,100
2022-12-17T13:14:34.000Z,98.6
2022-12-17T13:15:51.094Z,113.8
2022-12-17T13:17:07.000Z,97.5
2022-12-17T13:18:23.384Z,92.7
2022-12-17T13:19:39.527Z,119.2
2022-12-17T13:20:55.672Z,110.7
2022-12-17T13:22:11.000Z,114.2
2022-12-17T13:23:27.962Z,118.5
2022-12-17T13:24:42.000Z,103.7
2022-12-17T13:25:59.000Z,121.9
2022-12-17T13:27:15.000Z,118.7
2022-12-17T13:28:31.000Z,125.1
2022-12-17T13:29:47.000Z,120.7
2022-12-17T13:31:03.000Z,113.6
2022-12-17T13:32:19.000Z,128.5
2022-12-17T13:33:35.000Z,124.9
2022-12-17T13:34:52.000Z,116.4
2022-12-17T13:36:08.000Z,126
2022-12-17T13:37:24.572Z,131.7
2022-12-17T13:38:40.000Z,118.8
2022-12-17T13:39:56.860Z,116.9
2022-12-17T13:41:11.000Z,107.4
2022-12-17T13:42:27.000Z,127.4
2022-12-17T13:43:44.000Z,113.5
2022-12-17T13:45:00.000Z,123.6
2022-12-17T13:46:16.000Z,111
2022-12-17T13:47:32.000Z,109.3
2022-12-17T13:48:48.000Z,111
2022-12-17T13:50:04.000Z,103.9
2022-12-17T13:51:20.000Z,108
2022-12-17T13:52:37.000Z,99.3
2022-12-17T13:53:53.000Z,100.1
2022-12-17T13:55:09.618Z,96.6
2022-12-17T13:56:25.000Z,91.5
2022-12-17T13:57:40.000Z,104.5
2022-12-17T13:58:57.072Z,116.8
2022-12-17T14:00:12.000Z,106.8
2022-12-17T14:01:29.000Z,113.9
2022-12-17T14:02:45.000Z,117.8
2022-12-17T14:04:01.649Z,105.8
2022-12-17T14:05:16.000Z,111.9
2022-12-17T14:06:32.000Z,107.3
2022-12-17T14:07:48.000Z,117.5
2022-12-17T14:09:05.250Z,109
2022-12-17T14:10:21.000Z,117.4
2022-12-17T14:11:37.000Z,113.7
2022-12-17T14:12:53.000Z,111
2022-12-17T14:14:09.827Z,127.5
2022-12-17T14:15:25.000Z,135
2022-12-17T14:16:42.120Z,110.5
2022-12-17T14:17:58.262Z,124
2022-12-17T14:19:14.411Z,124.4
2022-12-17T14:20:30.563Z,113.6
2022-12-17T14:21:45.718Z,128.4
2022-12-17T14:23:01.855Z,112.7
2022-12-17T14:24:18.018Z,116.6
2022-12-17T14:25:34.153Z,109.6
2022-12-17T14:26:50.299Z,121.9
2022-12-17T14:28:06.448Z,109.8
2022-12-17T14:29:22.585Z,118.9
2022-12-17T14:30:38.736Z,110.8
2022-12-17T14:31:54.870Z,112.6
2022-12-17T14:33:11.019Z,102.8
2022-12-17T14:34:26.000Z,126.5
2022-12-17T14:35:43.000Z,116.5
2022-12-17T14:36:59.000Z,99.1
2022-12-17T14:38:14.000Z,120.5
2022-12-17T14:39:30.000Z,110.4
2022-12-17T14:40:46.000Z,104.8
2022-12-17T14:42:02.000Z,112.9
2022-12-17T14:43:19.187Z,103.1
2022-12-17T14:44:35.000Z,94.8
2022-12-17T14:45:51.000Z,91
2022-12-17T14:47:07.000Z,88.7
2022-12-17T14:48:23.000Z,108.5
2022-12-17T14:49:39.000Z,96.3
2022-12-17T14:50:55.000Z,98
2022-12-17T14:52:11.000Z,103.5
2022-12-17T14:53:28.000Z,104.1
2022-12-17T14:54:43.000Z,95.7
2022-12-17T14:55:59.656Z,94.8
2022-12-17T14:57:15.000Z,93
2022-12-17T14:58:31.000Z,101.8
2022-12-17T14:59:47.000Z,106
2022-12-17T15:01:04.230Z,112.4
2022-12-17T15:02:20.000Z,97.2
2022-12-17T15:03:36.524Z,107.2
2022-12-17T15:04:52.000Z,111.2
2022-12-17T15:06:08.000Z,100.6
2022-12-17T15:07:24.961Z,104.5
2022-12-17T15:08:40.000Z,108.6
2022-12-17T15:09:57.000Z,93
2022-12-17T15:11:12.000Z,104.8
2022-12-17T15:12:28.000Z,105.3
2022-12-17T15:13:44.000Z,99.7
2022-12-17T15:15:00.000Z,94.9
2022-12-17T15:16:16.000Z,115.4
2022-12-17T15:17:32.000Z,99.7
2022-12-17T15:18:49.283Z,111.6
2022-12-17T15:20:05.000Z,104.8
2022-12-17T15:21:21.000Z,93.2
2022-12-17T15:22:37.000Z,104.7
2022-12-17T15:23:53.873Z,109.2
2022-12-17T15:25:10.041Z,100.3
2022-12-17T15:26:25.000Z,108.9
2022-12-17T15:27:41.000Z,112.9
2022-12-17T15:28:57.483Z,101.2
2022-12-17T15:30:13.000Z,104.6
2022-12-17T15:31:29.000Z,112
2022-12-17T15:32:45.924Z,110.3
2022-12-17T15:34:02.070Z,114.9
2022-12-17T15:35:17.000Z,107.1
2022-12-17T15:36:34.000Z,102.4
2022-12-17T15:37:50.492Z,109.4
2022-12-17T15:39:06.638Z,128
2022-12-17T15:40:22.000Z,108.7
2022-12-17T15:41:38.000Z,105.3
2022-12-17T15:42:54.000Z,111.3
2022-12-17T15:44:10.000Z,97.3
2022-12-17T15:45:26.000Z,88.7
2022-12-17T15:46:42.000Z,101.7
2022-12-17T15:47:58.000Z,101.3
2022-12-17T15:49:14.000Z,106.6
2022-12-17T15:50:30.000Z,111.9
2022-12-17T15:51:46.000Z,111.8
2022-12-17T15:53:03.260Z,107.4
2022-12-17T15:54:19.000Z,104.9
2022-12-17T15:55:35.000Z,126.6
2022-12-17T15:56:51.704Z,118
2022-12-17T15:58:07.000Z,99.3
2022-12-17T15:59:23.000Z,109.1
2022-12-17T16:00:38.000Z,118.7
2022-12-17T16:01:55.000Z,102
2022-12-17T16:03:11.000Z,118.3
2022-12-17T16:04:27.000Z,117.1
2022-12-17T16:05:43.741Z,110.9
2022-12-17T16:06:59.000Z,103.8
2022-12-17T16:08:15.000Z,117.5
2022-12-17T16:09:31.000Z,111.3
2022-12-17T16:10:48.000Z,107.3
2022-12-17T16:12:04.469Z,116.1
2022-12-17T16:13:20.000Z,108.8
2022-12-17T16:14:36.000Z,106.6
2022-12-17T16:15:52.000Z,108.1
2022-12-17T16:17:07.000Z,93.1
2022-12-17T16:18:24.219Z,112.5
2022-12-17T16:19:40.000Z,116.7
2022-12-17T16:20:56.000Z,114.4
2022-12-17T16:22:12.000Z,109.5
2022-12-17T16:23:28.804Z,114.7
2022-12-17T16:24:44.947Z,120.9
2022-12-17T16:26:00.000Z,105.9
2022-12-17T16:27:17.000Z,115.3
2022-12-17T16:28:33.000Z,114.3
2022-12-17T16:29:49.535Z,107.2
2022-12-17T16:31:05.000Z,107
2022-12-17T16:32:21.000Z,112.5
2022-12-17T16:33:36.000Z,109.8
2022-12-17T16:34:52.000Z,114.9
2022-12-17T16:36:09.000Z,99.7
2022-12-17T16:37:25.428Z,100.6
2022-12-17T16:38:41.000Z,98.8
2022-12-17T16:39:57.000Z,99.6
2022-12-17T16:41:13.000Z,98.5